Terminal Aerodrome Forecast
Issued by NWS Corpus Christi, TX

Home | Current Version | Previous Version | Text Only | Print | Product List | Glossary On
Versions: 1 2 3 4 5 6 7 8 9 10 11 12 13 14 15 16 17
000
FTUS44 KCRP 181820 AAB
TAFCRP
TAF AMD
KCRP 181820Z 1818/1918 VRB05KT 4SM -RA BR SCT006 BKN030
      TEMPO 1818/1820 2SM -SHRA BKN005 OVC025
     FM182000 VRB04KT 5SM -RA BR SCT012 BKN035
      TEMPO 1820/1822 2SM -TSRA SCT006CB OVC012
     FM190000 10006KT 5SM BR OVC005
     FM190600 10005KT 2SM BR VCSH OVC006
      TEMPO 1912/1916 1SM SHRA BR OVC004
     FM191600 VRB04KT 3SM -RA BR OVC008 PROB30 1916/1918 2SM TSRA BR
      OVC006CB=

USA.gov is the U.S. government's official web portal to all federal, state and local government web resources and services.